Accueil
METAR-TAF:

METAR-TAF

Aéroports :

Ørsta-Volda, Norvège

latitude: 62-11N, longitude: 006-04E, altitude: 7 m

Observation

Le bulletin a été fait il y a 3 heures et 15 minutes, à 12:50 UTC
Vent 8 kt de est/nord-est, variant entre nord et sud-est
Température 1°C
Humidité 44%
Pression 1025 hPa
Visibilité 10 km ou plus
pas de nuages en-dessous de 1500 mètres et pas de cumulonimbus.

METAR: ENOV 151250Z 06008KT 350V140 CAVOK 01/M10 Q1025 RMK WIND 2175FT 14023KT

Heure: 17:05 (16:05 UTC)


TAF: absent

Observations et prévisions météorologiques de plus de 4000 aéroports (messages METAR et TAF).

Les stations disponibles sont représentées par des disques jaunes et rouges sur la carte.

Passer la souris dessus pour voir le nom de la station.

Cliquer dessus pour voir les observations et prévisions météorologiques.

Pour changer de carte: cliquez sur les boutons verts avec une croix noire pour zoomer, sur le bouton vert avec un tiret pour effectuer un zoom arrière, ou sur les flèches vertes pour les cartes adjacentes.


METAR-TAF: